Time;durP1;ratioP1;P1;durP2;ratioP2;P2;SDS_P1;SDS_P2;PMS_P1;PMS_P2;Temp;Humidity;BMP_temperature;BMP_pressure;BME280_temperature;BME280_humidity;BME280_pressure;Samples;Min_cycle;Max_cycle;Signal;HPM_P1;HPM_P2
2021/06/27 00:01:47;;;;;;;22.20;20.00;;;16.40;99.90;;;;;;5049114;28;20501;-67
2021/06/27 00:04:16;;;;;;;24.10;21.60;;;16.40;99.90;;;;;;5048270;28;20542;-67
2021/06/27 00:06:43;;;;;;;24.00;21.43;;;16.40;99.90;;;;;;5041903;28;20496;-67
2021/06/27 00:09:09;;;;;;;23.03;20.10;;;16.30;99.90;;;;;;5040696;28;20457;-68
2021/06/27 00:11:36;;;;;;;22.07;19.73;;;16.30;99.90;;;;;;5048623;28;20450;-67
2021/06/27 00:14:05;;;;;;;21.27;19.00;;;16.20;99.90;;;;;;5048659;28;20531;-67
2021/06/27 00:16:33;;;;;;;21.80;19.50;;;16.20;99.90;;;;;;5048612;28;20907;-67
2021/06/27 00:19:04;;;;;;;24.40;21.90;;;16.20;99.90;;;;;;5045085;28;20531;-66
2021/06/27 00:21:31;;;;;;;24.00;21.50;;;16.10;99.90;;;;;;5055837;28;20470;-67
2021/06/27 00:23:58;;;;;;;21.77;19.53;;;16.10;99.90;;;;;;5049904;28;20449;-67
2021/06/27 00:26:27;;;;;;;21.50;19.40;;;16.10;99.90;;;;;;5049833;28;20694;-67
2021/06/27 00:28:55;;;;;;;22.37;20.23;;;16.00;99.90;;;;;;5032345;28;20547;-67
2021/06/27 00:31:22;;;;;;;26.20;22.27;;;16.00;99.90;;;;;;5049083;28;20455;-67
2021/06/27 00:33:49;;;;;;;22.37;19.97;;;16.00;99.90;;;;;;5042927;28;20954;-67
2021/06/27 00:36:17;;;;;;;22.23;19.90;;;16.00;99.90;;;;;;5047678;28;20454;-68
2021/06/27 00:38:44;;;;;;;23.53;21.03;;;16.00;99.90;;;;;;5035447;28;20529;-68
2021/06/27 00:41:12;;;;;;;23.43;20.73;;;16.00;99.90;;;;;;5047607;28;20531;-68
2021/06/27 00:43:39;;;;;;;22.60;19.80;;;15.90;99.90;;;;;;5048620;28;20537;-68
2021/06/27 00:46:06;;;;;;;22.47;20.17;;;15.80;99.90;;;;;;5048370;28;20487;-68
2021/06/27 00:48:33;;;;;;;23.23;20.97;;;15.70;99.90;;;;;;5049238;28;21061;-67
2021/06/27 00:51:00;;;;;;;22.90;20.03;;;15.80;99.90;;;;;;5028300;28;20808;-68
2021/06/27 00:53:29;;;;;;;20.97;18.77;;;15.70;99.90;;;;;;5035839;28;20460;-68
2021/06/27 00:55:57;;;;;;;23.20;20.87;;;15.90;99.90;;;;;;5048357;28;20539;-68
2021/06/27 00:58:29;;;;;;;23.53;21.00;;;15.90;99.90;;;;;;5047945;28;20551;-66
2021/06/27 01:00:57;;;;;;;25.40;21.60;;;15.90;99.90;;;;;;5047999;28;20531;-66
2021/06/27 01:03:24;;;;;;;22.17;19.73;;;15.90;99.90;;;;;;5045176;28;20441;-66
2021/06/27 01:05:52;;;;;;;20.53;18.33;;;15.90;99.90;;;;;;5051559;28;20832;-66
2021/06/27 01:08:20;;;;;;;22.53;20.13;;;15.80;99.90;;;;;;5045429;28;20542;-66
2021/06/27 01:10:49;;;;;;;21.50;19.27;;;15.80;99.90;;;;;;5044597;28;20440;-66
2021/06/27 01:13:16;;;;;;;21.67;19.37;;;15.80;99.90;;;;;;5051032;28;20454;-66
2021/06/27 01:15:43;;;;;;;21.83;19.23;;;15.80;99.90;;;;;;5051262;28;20543;-66
2021/06/27 01:18:11;;;;;;;21.60;19.40;;;15.70;99.90;;;;;;5044103;28;20465;-66
2021/06/27 01:20:40;;;;;;;20.90;18.73;;;15.70;99.90;;;;;;5050558;28;21122;-66
2021/06/27 01:23:11;;;;;;;22.70;20.23;;;15.60;99.90;;;;;;5050500;28;20457;-66
2021/06/27 01:25:40;;;;;;;22.90;20.50;;;15.60;99.90;;;;;;5051060;28;20574;-66
2021/06/27 01:28:07;;;;;;;22.57;20.20;;;15.50;99.90;;;;;;5050289;28;20471;-66
2021/06/27 01:30:35;;;;;;;23.83;21.50;;;15.50;99.90;;;;;;5050397;28;20447;-66
2021/06/27 01:33:05;;;;;;;26.20;21.97;;;15.40;99.90;;;;;;5050291;28;20548;-66
2021/06/27 01:35:33;;;;;;;23.10;20.77;;;15.40;99.90;;;;;;5051340;28;20477;-66
2021/06/27 01:38:01;;;;;;;24.60;21.40;;;15.50;99.90;;;;;;5040938;28;20883;-65
2021/06/27 01:40:31;;;;;;;26.30;21.73;;;15.50;99.90;;;;;;5039798;28;20444;-67
2021/06/27 01:43:09;;;;;;;23.53;20.20;;;15.40;99.90;;;;;;5050975;28;20562;-66
2021/06/27 01:45:37;;;;;;;21.97;19.67;;;15.30;99.90;;;;;;5050837;28;20479;-66
2021/06/27 01:48:06;;;;;;;25.37;22.67;;;15.40;99.90;;;;;;5049893;28;20559;-66
2021/06/27 01:50:34;;;;;;;24.53;21.83;;;15.40;99.90;;;;;;5049866;28;20448;-66
2021/06/27 01:53:02;;;;;;;24.10;20.63;;;15.30;99.90;;;;;;5050004;28;20452;-67
2021/06/27 01:55:30;;;;;;;23.90;21.17;;;15.20;99.90;;;;;;5052192;28;20548;-67
2021/06/27 01:57:58;;;;;;;22.93;20.40;;;15.20;99.90;;;;;;5051755;28;21092;-67
2021/06/27 02:00:28;;;;;;;25.83;23.33;;;15.20;99.90;;;;;;5051369;28;20548;-67
2021/06/27 02:02:56;;;;;;;25.73;21.33;;;15.20;99.90;;;;;;5052395;28;20534;-67
2021/06/27 02:05:23;;;;;;;24.63;21.97;;;15.20;99.90;;;;;;5052143;28;20484;-67
2021/06/27 02:07:51;;;;;;;24.83;22.13;;;15.20;99.90;;;;;;5052010;28;20487;-67
2021/06/27 02:10:20;;;;;;;26.33;23.53;;;15.20;99.90;;;;;;5051177;28;21005;-67
2021/06/27 02:12:50;;;;;;;27.33;24.40;;;15.20;99.90;;;;;;5051911;28;20454;-67
2021/06/27 02:15:18;;;;;;;27.23;23.00;;;15.20;99.90;;;;;;5051890;28;20447;-67
2021/06/27 02:17:54;;;;;;;30.37;23.37;;;15.10;99.90;;;;;;5051839;28;20471;-67
2021/06/27 02:20:21;;;;;;;26.83;23.73;;;15.10;99.90;;;;;;5051046;28;20467;-67
2021/06/27 02:22:48;;;;;;;27.30;23.33;;;15.00;99.90;;;;;;5052188;28;20824;-67
2021/06/27 02:25:16;;;;;;;28.27;24.70;;;15.00;99.90;;;;;;5051612;28;20869;-67
2021/06/27 02:27:43;;;;;;;26.70;23.13;;;15.00;99.90;;;;;;5051234;28;20460;-67
2021/06/27 02:30:15;;;;;;;28.67;25.17;;;15.10;99.90;;;;;;5050952;28;20795;-67
2021/06/27 02:32:42;;;;;;;28.33;23.27;;;15.00;99.90;;;;;;5051738;28;21017;-67
2021/06/27 02:35:10;;;;;;;29.23;24.13;;;15.00;99.90;;;;;;5038318;28;20598;-67
2021/06/27 02:37:38;;;;;;;26.13;23.33;;;15.10;99.90;;;;;;5031467;28;20471;-68
2021/06/27 02:40:07;;;;;;;24.43;21.83;;;15.20;99.90;;;;;;5030925;28;20618;-69
2021/06/27 02:42:34;;;;;;;23.10;20.70;;;15.20;99.90;;;;;;5031401;28;20531;-67
2021/06/27 02:45:01;;;;;;;30.10;24.70;;;15.10;99.90;;;;;;5031896;28;20977;-68
2021/06/27 02:47:29;;;;;;;27.73;23.47;;;15.00;99.90;;;;;;5030862;28;20576;-67
2021/06/27 02:49:56;;;;;;;27.50;23.60;;;15.00;99.90;;;;;;5030749;28;20553;-67
2021/06/27 02:52:22;;;;;;;25.63;21.67;;;15.00;99.90;;;;;;5031276;28;20564;-67
2021/06/27 02:54:49;;;;;;;23.93;21.10;;;15.00;99.90;;;;;;5031651;28;20453;-67
2021/06/27 02:57:16;;;;;;;27.40;22.83;;;14.90;99.90;;;;;;5031166;28;20455;-67
2021/06/27 02:59:43;;;;;;;27.30;22.43;;;14.90;99.90;;;;;;5030843;28;20841;-67
2021/06/27 03:02:10;;;;;;;25.47;22.77;;;14.90;99.90;;;;;;5031729;28;20532;-67
2021/06/27 03:04:38;;;;;;;23.83;21.03;;;14.90;99.90;;;;;;5031366;28;20453;-67
2021/06/27 03:07:05;;;;;;;23.60;20.23;;;14.80;99.90;;;;;;5030808;28;20524;-66
2021/06/27 03:09:32;;;;;;;27.10;23.47;;;14.80;99.90;;;;;;5029947;28;20473;-66
2021/06/27 03:11:59;;;;;;;24.73;20.90;;;14.80;99.90;;;;;;5031450;28;20454;-67
2021/06/27 03:14:26;;;;;;;26.13;22.97;;;14.80;99.90;;;;;;5030997;28;20456;-67
2021/06/27 03:16:53;;;;;;;26.43;23.53;;;14.90;99.90;;;;;;5030698;28;20467;-66
2021/06/27 03:19:19;;;;;;;24.30;21.77;;;14.90;99.90;;;;;;5029821;28;21050;-66
2021/06/27 03:21:48;;;;;;;24.13;21.50;;;15.00;99.90;;;;;;5030964;28;20484;-67
2021/06/27 03:24:14;;;;;;;24.50;22.00;;;14.90;99.90;;;;;;5030110;28;20445;-69
2021/06/27 03:26:42;;;;;;;25.00;21.50;;;15.00;99.90;;;;;;5030332;28;20595;-67
2021/06/27 03:29:09;;;;;;;22.17;19.70;;;15.00;99.90;;;;;;5030070;28;20524;-67
2021/06/27 03:31:36;;;;;;;21.70;19.30;;;15.00;99.90;;;;;;5030383;28;20449;-66
2021/06/27 03:34:03;;;;;;;24.60;19.70;;;15.00;99.90;;;;;;5030774;28;20842;-66
2021/06/27 03:36:30;;;;;;;22.30;19.17;;;15.00;99.90;;;;;;5029921;28;20457;-67
2021/06/27 03:39:04;;;;;;;21.87;19.23;;;15.00;99.90;;;;;;5030428;28;20503;-67
2021/06/27 03:41:34;;;;;;;25.43;20.13;;;15.00;99.90;;;;;;5030183;28;20448;-67
2021/06/27 03:44:01;;;;;;;25.60;20.60;;;15.10;99.90;;;;;;5030450;28;20455;-67
2021/06/27 03:46:28;;;;;;;21.53;19.23;;;15.20;99.90;;;;;;5029999;28;20473;-67
2021/06/27 03:48:55;;;;;;;23.17;19.37;;;15.20;99.90;;;;;;5030466;28;20464;-67
2021/06/27 03:51:22;;;;;;;20.33;18.23;;;15.20;99.90;;;;;;5029796;28;21042;-67
2021/06/27 03:53:49;;;;;;;20.00;18.00;;;15.20;99.90;;;;;;5030355;28;20499;-67
2021/06/27 03:56:18;;;;;;;19.67;17.23;;;15.20;99.90;;;;;;5030394;28;20477;-67
2021/06/27 03:58:45;;;;;;;18.53;16.60;;;15.20;99.90;;;;;;5029990;28;20511;-67
2021/06/27 04:01:12;;;;;;;20.03;17.93;;;15.30;99.90;;;;;;5029948;28;20524;-67
2021/06/27 04:03:39;;;;;;;19.47;15.57;;;15.30;99.90;;;;;;5030462;28;20528;-67
2021/06/27 04:06:06;;;;;;;17.13;15.27;;;15.40;99.90;;;;;;5029849;28;20476;-67
2021/06/27 04:08:33;;;;;;;17.27;15.00;;;15.50;99.90;;;;;;5030151;28;20472;-67
2021/06/27 04:11:01;;;;;;;17.23;15.57;;;15.50;99.90;;;;;;5029354;28;20814;-67
2021/06/27 04:13:31;;;;;;;18.27;16.47;;;15.60;99.90;;;;;;5029967;28;20548;-67
2021/06/27 04:15:59;;;;;;;16.77;14.67;;;15.70;99.90;;;;;;5029687;28;20441;-67
2021/06/27 04:18:26;;;;;;;17.40;15.60;;;15.80;99.90;;;;;;5029832;28;20460;-67
2021/06/27 04:20:54;;;;;;;16.77;15.03;;;15.80;99.90;;;;;;5029301;28;20524;-67
2021/06/27 04:23:21;;;;;;;18.27;16.37;;;16.00;99.90;;;;;;5030126;28;20527;-67
2021/06/27 04:25:48;;;;;;;17.20;15.00;;;16.10;99.90;;;;;;5029735;28;20436;-67
2021/06/27 04:28:15;;;;;;;17.17;15.47;;;16.10;99.90;;;;;;5029427;28;20516;-67
2021/06/27 04:30:44;;;;;;;16.03;14.43;;;16.10;99.90;;;;;;5028658;28;20946;-67
2021/06/27 04:33:11;;;;;;;18.73;16.47;;;16.10;99.90;;;;;;5030157;28;20523;-67
2021/06/27 04:35:40;;;;;;;16.23;14.53;;;16.10;99.90;;;;;;5030547;28;20890;-67
2021/06/27 04:38:09;;;;;;;17.77;15.97;;;16.10;99.90;;;;;;5033839;28;20511;-67
2021/06/27 04:40:36;;;;;;;16.20;14.70;;;16.20;99.90;;;;;;5033164;28;20915;-67
2021/06/27 04:43:03;;;;;;;14.67;13.10;;;16.30;99.90;;;;;;5034143;28;20476;-67
2021/06/27 04:45:32;;;;;;;14.53;13.03;;;16.40;99.90;;;;;;5033761;28;20445;-67
2021/06/27 04:48:00;;;;;;;18.03;15.43;;;16.50;99.90;;;;;;5033508;28;20567;-67
2021/06/27 04:50:27;;;;;;;16.17;14.57;;;16.60;99.90;;;;;;5032786;28;20483;-67
2021/06/27 04:52:54;;;;;;;19.20;17.20;;;16.70;99.90;;;;;;5033579;28;20524;-67
2021/06/27 04:55:21;;;;;;;16.63;14.90;;;16.70;99.90;;;;;;5033706;28;20539;-68
2021/06/27 04:57:48;;;;;;;15.73;14.20;;;16.80;99.90;;;;;;5032951;28;20535;-67
2021/06/27 05:00:16;;;;;;;15.87;14.27;;;16.80;99.90;;;;;;5032624;28;20452;-67
2021/06/27 05:02:43;;;;;;;15.57;14.07;;;16.80;99.90;;;;;;5033476;28;20523;-67
2021/06/27 05:05:13;;;;;;;14.23;12.93;;;16.90;99.90;;;;;;5033416;28;20957;-67
2021/06/27 05:07:40;;;;;;;19.90;14.73;;;17.00;99.90;;;;;;5032775;28;20476;-68
2021/06/27 05:10:08;;;;;;;17.93;15.27;;;17.00;99.90;;;;;;5032504;28;20914;-67
2021/06/27 05:12:36;;;;;;;17.13;15.33;;;17.20;99.90;;;;;;5033109;28;20462;-69
2021/06/27 05:15:03;;;;;;;17.60;15.70;;;17.30;99.90;;;;;;5033436;28;20831;-67
2021/06/27 05:17:30;;;;;;;17.00;15.50;;;17.20;99.90;;;;;;5033094;28;20439;-67
2021/06/27 05:19:56;;;;;;;15.63;14.10;;;17.10;99.90;;;;;;5032034;28;20920;-67
2021/06/27 05:22:25;;;;;;;16.50;14.87;;;17.20;99.90;;;;;;5033200;28;20432;-68
2021/06/27 05:24:51;;;;;;;15.30;13.70;;;17.10;99.90;;;;;;5032901;28;20870;-67
2021/06/27 05:27:18;;;;;;;15.77;14.37;;;17.20;99.90;;;;;;5032471;28;20591;-67
2021/06/27 05:29:45;;;;;;;14.60;13.10;;;17.40;99.90;;;;;;5031869;28;21175;-67
2021/06/27 05:32:12;;;;;;;16.20;14.60;;;17.50;99.90;;;;;;5033231;28;20560;-68
2021/06/27 05:34:39;;;;;;;16.23;14.63;;;17.60;99.90;;;;;;5033133;28;20444;-68
2021/06/27 05:37:06;;;;;;;15.80;14.33;;;17.80;99.90;;;;;;5032619;28;20435;-67
2021/06/27 05:39:34;;;;;;;17.07;15.37;;;17.90;99.90;;;;;;5031550;28;20464;-67
2021/06/27 05:42:01;;;;;;;17.70;15.80;;;18.10;99.90;;;;;;5032681;28;20523;-67
2021/06/27 05:44:28;;;;;;;16.77;15.17;;;18.00;99.90;;;;;;5032954;28;20544;-67
2021/06/27 05:46:55;;;;;;;15.20;13.70;;;18.10;99.90;;;;;;5031842;28;20567;-67
2021/06/27 05:49:22;;;;;;;16.20;14.77;;;18.10;99.90;;;;;;5031421;28;21169;-67
2021/06/27 05:51:48;;;;;;;15.77;14.37;;;18.20;99.90;;;;;;5032768;28;20547;-68
2021/06/27 05:54:15;;;;;;;15.00;13.60;;;18.30;99.90;;;;;;5032472;28;20531;-67
2021/06/27 05:56:44;;;;;;;15.43;13.93;;;18.50;99.90;;;;;;5032109;28;20441;-67
2021/06/27 05:59:10;;;;;;;14.87;13.37;;;18.70;99.90;;;;;;5031574;28;20469;-67
2021/06/27 06:01:37;;;;;;;15.73;14.13;;;18.90;99.90;;;;;;5032194;28;20455;-67
2021/06/27 06:04:04;;;;;;;14.23;12.73;;;18.90;99.90;;;;;;5032540;28;20524;-67
2021/06/27 06:06:31;;;;;;;14.50;12.90;;;18.90;99.90;;;;;;5031565;28;20528;-67
2021/06/27 06:08:58;;;;;;;13.20;11.93;;;18.90;99.90;;;;;;5031662;28;20518;-66
2021/06/27 06:11:26;;;;;;;16.73;15.13;;;19.00;99.90;;;;;;5032075;28;20433;-67
2021/06/27 06:13:55;;;;;;;14.00;12.60;;;19.00;99.90;;;;;;5032050;28;20445;-67
2021/06/27 06:16:23;;;;;;;13.37;12.10;;;19.10;99.90;;;;;;5032203;28;21049;-67
2021/06/27 06:18:50;;;;;;;13.80;12.50;;;19.20;99.90;;;;;;5031729;28;20540;-68
2021/06/27 06:21:17;;;;;;;12.90;11.60;;;19.20;99.90;;;;;;5031199;28;20939;-68
2021/06/27 06:23:45;;;;;;;13.20;11.83;;;19.40;99.90;;;;;;5032265;28;20524;-67
2021/06/27 06:26:13;;;;;;;13.10;11.70;;;19.50;99.90;;;;;;5032010;28;20449;-68
2021/06/27 06:28:40;;;;;;;13.27;10.70;;;19.70;99.90;;;;;;5031396;28;20512;-67
2021/06/27 06:31:09;;;;;;;12.53;11.33;;;19.70;99.90;;;;;;5030704;28;20537;-68
2021/06/27 06:33:36;;;;;;;10.90;9.93;;;19.80;99.90;;;;;;5031063;28;20444;-67
2021/06/27 06:36:04;;;;;;;11.87;10.63;;;19.80;99.90;;;;;;5031170;28;20535;-67
2021/06/27 06:38:31;;;;;;;12.87;10.67;;;19.90;99.90;;;;;;5031211;28;20496;-67
2021/06/27 06:40:58;;;;;;;10.33;9.43;;;19.90;99.90;;;;;;5030733;28;20463;-67
2021/06/27 06:43:25;;;;;;;10.30;9.20;;;20.20;99.90;;;;;;5031539;28;20436;-67
2021/06/27 06:45:52;;;;;;;10.57;9.47;;;20.40;99.90;;;;;;5030967;28;20536;-68
2021/06/27 06:48:20;;;;;;;10.90;9.90;;;20.70;99.90;;;;;;5030655;28;20480;-67
2021/06/27 06:50:47;;;;;;;10.57;9.67;;;20.90;99.90;;;;;;5030203;28;21140;-67
2021/06/27 06:53:14;;;;;;;17.90;10.60;;;21.00;99.90;;;;;;5031295;28;20447;-67
2021/06/27 06:55:40;;;;;;;9.93;8.60;;;21.20;99.90;;;;;;5030797;28;20448;-68
2021/06/27 06:58:07;;;;;;;9.43;8.53;;;21.40;99.90;;;;;;5030548;28;20539;-67
2021/06/27 07:00:34;;;;;;;9.00;8.20;;;21.70;99.90;;;;;;5028838;28;20439;-67
2021/06/27 07:03:01;;;;;;;10.63;9.00;;;21.80;99.90;;;;;;5030629;28;20520;-67
2021/06/27 07:05:29;;;;;;;9.80;8.30;;;21.90;99.90;;;;;;5031078;28;20939;-67
2021/06/27 07:07:56;;;;;;;7.57;6.90;;;22.00;99.90;;;;;;5030440;28;20564;-67
2021/06/27 07:10:23;;;;;;;7.67;6.93;;;22.10;99.90;;;;;;5030197;28;20892;-67
2021/06/27 07:12:50;;;;;;;8.77;7.97;;;22.30;99.90;;;;;;5030551;28;21174;-68
2021/06/27 07:15:17;;;;;;;7.97;7.17;;;22.40;99.90;;;;;;5030812;28;20449;-68
2021/06/27 07:17:44;;;;;;;8.70;7.90;;;22.40;99.90;;;;;;5030109;28;20461;-67
2021/06/27 07:20:12;;;;;;;8.90;7.87;;;22.30;99.90;;;;;;5029868;28;20457;-69
2021/06/27 07:22:40;;;;;;;8.17;7.47;;;22.20;99.90;;;;;;5030361;28;20524;-68
2021/06/27 07:25:08;;;;;;;8.37;7.57;;;22.10;99.90;;;;;;5030361;28;20569;-69
2021/06/27 07:27:36;;;;;;;9.23;7.37;;;22.10;99.90;;;;;;5029889;28;20575;-67
2021/06/27 07:30:03;;;;;;;8.20;7.40;;;22.20;99.90;;;;;;5029388;28;20459;-68
2021/06/27 07:32:30;;;;;;;7.70;7.00;;;22.40;99.90;;;;;;5030518;28;20451;-70
2021/06/27 07:34:57;;;;;;;7.13;6.43;;;22.50;99.90;;;;;;5030344;28;20531;-69
2021/06/27 07:37:24;;;;;;;7.17;6.57;;;22.90;99.90;;;;;;5030255;28;20444;-69
2021/06/27 07:39:53;;;;;;;6.97;6.37;;;23.00;99.90;;;;;;5029614;28;20888;-69
2021/06/27 07:42:20;;;;;;;7.60;6.83;;;23.20;99.90;;;;;;5030516;28;20452;-71
2021/06/27 07:44:46;;;;;;;7.07;6.47;;;23.20;99.90;;;;;;5030465;28;20547;-70
2021/06/27 07:47:14;;;;;;;7.80;7.10;;;23.00;99.90;;;;;;5029617;28;20576;-69
2021/06/27 07:49:41;;;;;;;6.90;6.30;;;22.80;99.90;;;;;;5029615;28;20448;-70
2021/06/27 07:52:10;;;;;;;7.50;6.70;;;22.70;99.90;;;;;;5030089;28;20537;-72
2021/06/27 07:54:37;;;;;;;8.10;6.90;;;22.70;99.90;;;;;;5029999;28;20452;-72
2021/06/27 07:57:07;;;;;;;7.00;6.40;;;22.70;99.90;;;;;;5029268;28;20943;-71
2021/06/27 07:59:34;;;;;;;7.10;6.40;;;22.80;99.90;;;;;;5029251;28;20479;-70
2021/06/27 08:02:02;;;;;;;7.53;6.35;;;23.00;99.90;;;;;;5029443;28;20460;-68
2021/06/27 08:04:29;;;;;;;7.23;6.57;;;23.10;99.90;;;;;;5029955;28;20204;-69
2021/06/27 08:06:55;;;;;;;6.83;6.23;;;23.20;99.90;;;;;;5029612;28;20432;-69
2021/06/27 08:09:22;;;;;;;6.33;5.83;;;23.30;99.90;;;;;;5028952;28;20556;-69
2021/06/27 08:11:49;;;;;;;6.60;6.00;;;23.40;99.90;;;;;;5029697;28;20517;-69
2021/06/27 08:14:18;;;;;;;6.97;6.37;;;23.50;99.90;;;;;;5029630;28;21108;-69
2021/06/27 08:16:45;;;;;;;6.10;5.50;;;23.60;99.90;;;;;;5029709;28;20532;-69
2021/06/27 08:19:11;;;;;;;6.43;5.80;;;23.70;99.90;;;;;;5028858;28;20480;-69
2021/06/27 08:21:38;;;;;;;5.83;5.33;;;23.80;99.90;;;;;;5029775;28;20441;-69
2021/06/27 08:24:06;;;;;;;7.80;7.10;;;23.90;99.90;;;;;;5029468;28;20480;-70
2021/06/27 08:26:33;;;;;;;6.50;5.90;;;24.10;99.90;;;;;;5029034;28;20972;-70
2021/06/27 08:28:59;;;;;;;6.47;5.87;;;24.20;99.90;;;;;;5029036;28;20489;-70
2021/06/27 08:31:31;;;;;;;6.90;6.27;;;24.30;99.90;;;;;;5029277;28;20444;-70
2021/06/27 08:34:00;;;;;;;6.10;5.60;;;24.50;99.90;;;;;;5030381;28;20456;-70
2021/06/27 08:36:29;;;;;;;6.00;5.40;;;24.60;99.90;;;;;;5029978;28;20445;-70
2021/06/27 08:38:56;;;;;;;6.70;6.10;;;24.60;99.90;;;;;;5043961;28;20459;-70
2021/06/27 08:41:23;;;;;;;6.40;5.80;;;24.70;99.90;;;;;;5052260;28;20446;-68
2021/06/27 08:43:50;;;;;;;6.57;5.87;;;24.80;99.90;;;;;;5051118;28;20444;-69
2021/06/27 08:46:18;;;;;;;7.07;6.47;;;24.80;99.90;;;;;;5049470;28;20454;-69
2021/06/27 08:48:46;;;;;;;6.70;6.07;;;24.80;99.90;;;;;;5049623;28;20888;-69
2021/06/27 08:51:14;;;;;;;6.73;6.13;;;24.70;99.90;;;;;;5048602;28;20452;-68
2021/06/27 08:53:42;;;;;;;6.17;5.57;;;24.80;99.90;;;;;;5050054;28;20534;-69
2021/06/27 08:56:10;;;;;;;6.50;5.73;;;24.80;99.90;;;;;;5049709;28;20531;-69
2021/06/27 08:58:39;;;;;;;6.27;5.77;;;24.90;99.90;;;;;;5049451;28;20484;-69
2021/06/27 09:01:11;;;;;;;5.83;5.10;;;25.00;99.90;;;;;;5049003;28;20515;-68
2021/06/27 09:03:38;;;;;;;7.03;6.43;;;25.10;99.90;;;;;;5048766;28;20543;-69
2021/06/27 09:06:07;;;;;;;6.40;5.80;;;25.20;99.90;;;;;;5048502;28;20847;-69
2021/06/27 09:08:34;;;;;;;6.00;5.50;;;25.40;99.90;;;;;;5047521;28;21007;-69
2021/06/27 09:11:13;;;;;;;6.03;5.43;;;25.60;99.90;;;;;;5048402;28;20452;-69
2021/06/27 09:13:42;;;;;;;7.37;5.97;;;25.70;99.90;;;;;;5049466;28;20450;-69
2021/06/27 09:16:23;;;;;;;5.97;5.47;;;26.00;99.90;;;;;;5048505;28;20527;-70
2021/06/27 09:18:51;;;;;;;6.07;5.47;;;26.20;99.90;;;;;;5048871;28;20538;-69
2021/06/27 09:21:21;;;;;;;5.03;4.43;;;26.40;99.90;;;;;;5048312;28;21045;-69
2021/06/27 09:23:49;;;;;;;5.73;5.23;;;26.60;99.90;;;;;;5051645;28;20447;-68
2021/06/27 09:26:27;;;;;;;5.40;4.80;;;26.80;99.90;;;;;;5052692;28;20450;-69
2021/06/27 09:28:54;;;;;;;7.00;5.07;;;27.00;99.90;;;;;;5052602;28;20910;-69
2021/06/27 09:31:40;;;;;;;5.70;5.20;;;27.00;99.90;;;;;;5052115;28;20548;-69
2021/06/27 09:34:08;;;;;;;4.40;4.00;;;27.00;99.90;;;;;;5052963;28;20456;-69
2021/06/27 09:36:44;;;;;;;6.20;5.60;;;27.10;99.90;;;;;;5051943;28;20444;-69
2021/06/27 09:39:13;;;;;;;4.73;4.23;;;27.20;99.90;;;;;;5051625;28;20455;-70
2021/06/27 09:41:51;;;;;;;6.80;4.70;;;27.40;99.90;;;;;;5052499;28;20452;-70
2021/06/27 09:44:19;;;;;;;5.13;4.63;;;27.40;99.90;;;;;;5052581;28;20467;-70
2021/06/27 09:46:49;;;;;;;5.50;5.00;;;27.40;99.90;;;;;;5052115;28;20543;-69
2021/06/27 09:49:18;;;;;;;5.20;4.37;;;27.40;99.90;;;;;;5051222;28;21020;-70
2021/06/27 09:51:51;;;;;;;5.77;5.27;;;27.60;99.90;;;;;;5052081;28;20502;-69
2021/06/27 09:54:26;;;;;;;4.77;4.37;;;27.90;99.90;;;;;;5052134;28;20937;-68
2021/06/27 09:56:54;;;;;;;6.10;4.13;;;28.10;99.90;;;;;;5051535;28;20440;-68
2021/06/27 09:59:22;;;;;;;6.00;4.23;;;28.10;99.90;;;;;;5050960;28;20476;-68
2021/06/27 10:01:51;;;;;;;4.20;3.80;;;28.20;99.90;;;;;;5052181;28;20455;-69
2021/06/27 10:04:28;;;;;;;4.70;4.20;;;28.40;99.90;;;;;;5051791;28;20480;-69
2021/06/27 10:06:57;;;;;;;4.83;4.03;;;29.10;99.90;;;;;;5051629;28;20432;-69
2021/06/27 10:09:28;;;;;;;4.77;4.00;;;29.90;99.60;;;;;;5050780;28;20986;-69
2021/06/27 10:12:00;;;;;;;4.50;4.10;;;30.60;94.70;;;;;;5051801;28;20526;-69
2021/06/27 10:14:30;;;;;;;4.57;3.10;;;31.40;97.10;;;;;;5051790;28;20539;-69
2021/06/27 10:17:03;;;;;;;3.40;3.10;;;32.10;94.90;;;;;;5051097;28;21153;-69
2021/06/27 10:19:30;;;;;;;3.20;2.70;;;32.30;94.20;;;;;;5050929;28;20547;-69
2021/06/27 10:22:02;;;;;;;3.17;2.40;;;32.10;92.40;;;;;;5051414;28;20454;-69
2021/06/27 10:24:29;;;;;;;4.07;3.10;;;32.30;91.60;;;;;;5051616;28;20514;-70
2021/06/27 10:26:56;;;;;;;3.37;3.07;;;32.50;91.80;;;;;;5050894;28;20447;-70
2021/06/27 10:29:27;;;;;;;3.60;3.30;;;33.20;91.80;;;;;;5050618;28;20488;-70
2021/06/27 10:31:59;;;;;;;3.10;2.80;;;33.30;86.80;;;;;;5051514;28;20546;-68
2021/06/27 10:34:26;;;;;;;3.83;3.17;;;33.60;84.30;;;;;;5051100;28;20434;-67
2021/06/27 10:36:57;;;;;;;3.27;2.97;;;33.00;88.50;;;;;;5051214;28;20455;-69
2021/06/27 10:39:26;;;;;;;3.90;3.57;;;32.80;86.10;;;;;;5050536;28;20468;-68
2021/06/27 10:42:04;;;;;;;5.90;3.27;;;32.00;88.70;;;;;;5051357;28;20463;-69
2021/06/27 10:44:51;;;;;;;3.97;3.47;;;31.60;89.10;;;;;;5051287;28;20525;-69
2021/06/27 10:47:31;;;;;;;3.37;2.90;;;31.80;90.00;;;;;;5050376;28;20535;-68
2021/06/27 10:49:59;;;;;;;3.10;2.73;;;31.90;83.70;;;;;;5050066;28;20929;-70
2021/06/27 10:52:27;;;;;;;4.20;3.33;;;32.20;89.60;;;;;;5051012;28;20448;-70
2021/06/27 10:55:19;;;;;;;3.43;3.13;;;32.90;85.70;;;;;;5051170;28;20462;-70
2021/06/27 10:58:06;;;;;;;3.67;3.27;;;33.10;89.40;;;;;;5050533;28;20839;-70
2021/06/27 11:01:05;;;;;;;4.07;3.00;;;33.20;86.90;;;;;;5050229;28;20428;-70
2021/06/27 11:03:37;;;;;;;3.20;2.90;;;33.30;83.50;;;;;;5006349;28;20442;-70
2021/06/27 11:06:06;;;;;;;2.90;2.60;;;33.60;85.50;;;;;;5042806;28;20571;-70
2021/06/27 11:08:39;;;;;;;2.90;2.40;;;33.80;83.80;;;;;;5050826;28;20495;-71
2021/06/27 11:11:16;;;;;;;3.40;3.10;;;34.00;81.20;;;;;;5050983;28;20807;-70
2021/06/27 11:13:45;;;;;;;2.97;2.67;;;34.40;84.60;;;;;;5051035;28;20478;-69
2021/06/27 11:16:18;;;;;;;2.93;2.63;;;34.90;78.90;;;;;;5050669;28;20452;-69
2021/06/27 11:18:47;;;;;;;3.20;2.90;;;35.20;75.20;;;;;;5051350;28;20452;-69
2021/06/27 11:21:33;;;;;;;5.00;2.80;;;35.00;76.60;;;;;;5049490;28;20550;-69
2021/06/27 11:24:03;;;;;;;3.03;2.57;;;34.90;75.50;;;;;;5050955;28;20522;-69
2021/06/27 11:26:57;;;;;;;2.80;2.50;;;35.30;74.80;;;;;;5050475;28;20542;-69
2021/06/27 11:29:40;;;;;;;3.83;2.77;;;35.70;76.00;;;;;;5049268;28;21009;-70
2021/06/27 11:32:43;;;;;;;3.40;3.10;;;36.00;72.80;;;;;;5050375;28;20452;-69
2021/06/27 11:35:11;;;;;;;4.00;3.07;;;36.60;70.30;;;;;;5049911;28;20446;-69
2021/06/27 11:37:43;;;;;;;3.10;2.47;;;36.40;65.60;;;;;;5050046;28;20569;-70
2021/06/27 11:40:11;;;;;;;2.90;2.43;;;36.20;68.50;;;;;;5049648;28;20450;-69
2021/06/27 11:42:55;;;;;;;2.70;2.23;;;36.10;68.50;;;;;;5050151;28;20443;-69
2021/06/27 11:45:52;;;;;;;3.30;2.80;;;36.40;70.70;;;;;;5049586;28;20448;-69
2021/06/27 11:48:19;;;;;;;2.60;2.40;;;36.00;62.30;;;;;;5049898;28;20474;-69
2021/06/27 11:50:54;;;;;;;2.80;2.50;;;34.70;65.00;;;;;;5049403;28;20478;-70
2021/06/27 11:53:26;;;;;;;3.13;2.80;;;33.80;69.60;;;;;;5049948;28;20466;-69
2021/06/27 11:56:09;;;;;;;2.90;2.60;;;33.20;71.60;;;;;;5049589;28;20977;-70
2021/06/27 11:58:37;;;;;;;4.07;2.20;;;33.00;67.90;;;;;;5049925;28;20467;-69
2021/06/27 12:01:11;;;;;;;3.17;1.93;;;33.10;73.00;;;;;;5049126;28;20440;-69
2021/06/27 12:03:48;;;;;;;2.77;2.40;;;33.70;75.30;;;;;;5049946;28;20462;-70
2021/06/27 12:06:16;;;;;;;2.90;2.23;;;34.30;71.50;;;;;;5049686;28;20469;-69
2021/06/27 12:08:47;;;;;;;2.93;2.40;;;35.00;68.30;;;;;;5049496;28;20483;-70
2021/06/27 12:11:14;;;;;;;3.80;2.90;;;35.60;68.60;;;;;;5049063;28;20494;-70
2021/06/27 12:13:42;;;;;;;3.50;2.50;;;35.90;63.40;;;;;;5049815;28;20443;-68
2021/06/27 12:16:09;;;;;;;3.13;2.53;;;36.10;63.20;;;;;;5049535;28;20462;-70
2021/06/27 12:18:37;;;;;;;3.47;2.93;;;35.90;61.70;;;;;;5050001;28;20499;-70
2021/06/27 12:21:07;;;;;;;2.40;2.17;;;35.80;66.80;;;;;;5049039;28;20467;-70
2021/06/27 12:23:36;;;;;;;2.93;2.63;;;35.50;65.20;;;;;;5049836;28;20483;-69
2021/06/27 12:26:05;;;;;;;2.90;2.60;;;35.60;62.10;;;;;;5049495;28;20447;-70
2021/06/27 12:28:34;;;;;;;2.80;2.50;;;35.60;58.60;;;;;;5049658;28;20460;-69
2021/06/27 12:31:08;;;;;;;2.80;2.40;;;35.80;65.90;;;;;;5048701;28;21048;-69
2021/06/27 12:33:37;;;;;;;2.63;2.20;;;36.00;66.70;;;;;;5049870;28;20433;-69
2021/06/27 12:36:07;;;;;;;3.20;2.50;;;36.40;65.60;;;;;;5049202;28;20452;-69
2021/06/27 12:38:34;;;;;;;3.20;2.90;;;36.80;65.50;;;;;;5049409;28;20558;-69
2021/06/27 12:41:03;;;;;;;3.43;2.80;;;36.70;62.50;;;;;;5048604;28;20447;-69
2021/06/27 12:43:33;;;;;;;3.00;2.63;;;36.60;60.40;;;;;;5049323;28;20526;-69
2021/06/27 12:46:17;;;;;;;2.90;2.60;;;36.40;60.50;;;;;;5049637;28;20448;-69